Terminal Aerodrome Forecast
Issued by NWS Sterling, VA

Current Version | Previous Version | Text Only | Print | Product List | Glossary On
Versions: 1 2 3 4 5 6 7 8 9 10 11 12 13 14 15 16 17 18 19 20 21 22 23
000
FTUS41 KLWX 052332
TAFMRB
TAF
KMRB 052332Z 0600/0624 34013KT P6SM OVC090
      TEMPO 0600/0602 3SM -SN OVC025
     FM060200 32008KT P6SM SCT050
     FM060600 35005KT P6SM FEW250
     FM061500 VRB03KT P6SM FEW020 SCT250=

USA.gov is the U.S. government's official web portal to all federal, state and local government web resources and services.